sensor_id;sensor_type;location;lat;lon;timestamp;temperature;humidity
11505;DHT22;5809;53.262;10.408;2023-05-10T00:00:12;13.70;99.90
11505;DHT22;5809;53.262;10.408;2023-05-10T00:02:39;13.80;99.90
11505;DHT22;5809;53.262;10.408;2023-05-10T00:05:07;13.70;99.90
11505;DHT22;5809;53.262;10.408;2023-05-10T00:10:01;13.60;99.90
11505;DHT22;5809;53.262;10.408;2023-05-10T00:12:28;13.60;99.90
11505;DHT22;5809;53.262;10.408;2023-05-10T00:14:55;13.60;99.90
11505;DHT22;5809;53.262;10.408;2023-05-10T00:17:23;13.50;99.90
11505;DHT22;5809;53.262;10.408;2023-05-10T00:19:50;13.60;99.90
11505;DHT22;5809;53.262;10.408;2023-05-10T00:22:16;13.50;99.90
11505;DHT22;5809;53.262;10.408;2023-05-10T00:24:43;13.50;99.90
11505;DHT22;5809;53.262;10.408;2023-05-10T00:27:10;13.50;99.90
11505;DHT22;5809;53.262;10.408;2023-05-10T00:29:37;13.50;99.90
11505;DHT22;5809;53.262;10.408;2023-05-10T00:32:04;13.40;99.90
11505;DHT22;5809;53.262;10.408;2023-05-10T00:34:32;13.40;99.90
11505;DHT22;5809;53.262;10.408;2023-05-10T00:36:59;13.40;99.90
11505;DHT22;5809;53.262;10.408;2023-05-10T00:39:27;13.40;99.90
11505;DHT22;5809;53.262;10.408;2023-05-10T00:41:54;13.40;99.90
11505;DHT22;5809;53.262;10.408;2023-05-10T00:46:48;13.30;99.90
11505;DHT22;5809;53.262;10.408;2023-05-10T00:49:16;13.30;99.90
11505;DHT22;5809;53.262;10.408;2023-05-10T00:51:44;13.20;99.90
11505;DHT22;5809;53.262;10.408;2023-05-10T00:54:12;13.20;99.90
11505;DHT22;5809;53.262;10.408;2023-05-10T00:56:41;13.20;99.90
11505;DHT22;5809;53.262;10.408;2023-05-10T00:59:09;13.10;99.90
11505;DHT22;5809;53.262;10.408;2023-05-10T01:01:37;13.20;99.90
11505;DHT22;5809;53.262;10.408;2023-05-10T01:04:04;13.10;99.90
11505;DHT22;5809;53.262;10.408;2023-05-10T01:06:31;13.00;99.90
11505;DHT22;5809;53.262;10.408;2023-05-10T01:08:59;13.00;99.90
11505;DHT22;5809;53.262;10.408;2023-05-10T01:11:26;12.90;99.90
11505;DHT22;5809;53.262;10.408;2023-05-10T01:13:56;12.90;99.90
11505;DHT22;5809;53.262;10.408;2023-05-10T01:16:24;12.90;99.90
11505;DHT22;5809;53.262;10.408;2023-05-10T01:18:51;12.90;99.90
11505;DHT22;5809;53.262;10.408;2023-05-10T01:21:27;12.90;99.90
11505;DHT22;5809;53.262;10.408;2023-05-10T01:24:18;12.90;99.90
11505;DHT22;5809;53.262;10.408;2023-05-10T01:30:31;12.70;99.90
11505;DHT22;5809;53.262;10.408;2023-05-10T01:33:09;12.70;99.90
11505;DHT22;5809;53.262;10.408;2023-05-10T01:35:40;12.70;99.90
11505;DHT22;5809;53.262;10.408;2023-05-10T01:38:15;12.60;99.90
11505;DHT22;5809;53.262;10.408;2023-05-10T01:40:51;12.70;99.90
11505;DHT22;5809;53.262;10.408;2023-05-10T01:43:22;12.60;99.90
11505;DHT22;5809;53.262;10.408;2023-05-10T01:45:59;12.60;99.90
11505;DHT22;5809;53.262;10.408;2023-05-10T01:48:32;12.60;99.90
11505;DHT22;5809;53.262;10.408;2023-05-10T01:50:59;12.50;99.90
11505;DHT22;5809;53.262;10.408;2023-05-10T01:53:26;12.50;99.90
11505;DHT22;5809;53.262;10.408;2023-05-10T01:55:55;12.40;99.90
11505;DHT22;5809;53.262;10.408;2023-05-10T01:58:26;12.40;99.90
11505;DHT22;5809;53.262;10.408;2023-05-10T02:00:54;12.40;99.90
11505;DHT22;5809;53.262;10.408;2023-05-10T02:03:23;12.40;99.90
11505;DHT22;5809;53.262;10.408;2023-05-10T02:05:54;12.30;99.90
11505;DHT22;5809;53.262;10.408;2023-05-10T02:08:22;12.30;99.90
11505;DHT22;5809;53.262;10.408;2023-05-10T02:10:51;12.30;99.90
11505;DHT22;5809;53.262;10.408;2023-05-10T02:13:19;12.20;99.90
11505;DHT22;5809;53.262;10.408;2023-05-10T02:15:48;12.10;99.90
11505;DHT22;5809;53.262;10.408;2023-05-10T02:18:16;12.10;99.90
11505;DHT22;5809;53.262;10.408;2023-05-10T02:20:44;12.10;99.90
11505;DHT22;5809;53.262;10.408;2023-05-10T02:23:13;12.10;99.90
11505;DHT22;5809;53.262;10.408;2023-05-10T02:25:41;12.10;99.90
11505;DHT22;5809;53.262;10.408;2023-05-10T02:28:10;12.10;99.90
11505;DHT22;5809;53.262;10.408;2023-05-10T02:30:39;12.00;99.90
11505;DHT22;5809;53.262;10.408;2023-05-10T02:33:06;12.00;99.90
11505;DHT22;5809;53.262;10.408;2023-05-10T02:35:34;12.00;99.90
11505;DHT22;5809;53.262;10.408;2023-05-10T02:38:01;11.90;99.90
11505;DHT22;5809;53.262;10.408;2023-05-10T02:40:30;11.90;99.90
11505;DHT22;5809;53.262;10.408;2023-05-10T02:42:59;11.90;99.90
11505;DHT22;5809;53.262;10.408;2023-05-10T02:45:31;11.90;99.90
11505;DHT22;5809;53.262;10.408;2023-05-10T02:47:59;11.80;99.90
11505;DHT22;5809;53.262;10.408;2023-05-10T02:50:28;11.80;99.90
11505;DHT22;5809;53.262;10.408;2023-05-10T02:53:01;11.70;99.90
11505;DHT22;5809;53.262;10.408;2023-05-10T02:55:36;11.70;99.90
11505;DHT22;5809;53.262;10.408;2023-05-10T02:58:04;11.70;99.90
11505;DHT22;5809;53.262;10.408;2023-05-10T03:00:31;11.70;99.90
11505;DHT22;5809;53.262;10.408;2023-05-10T03:02:58;11.60;99.90
11505;DHT22;5809;53.262;10.408;2023-05-10T03:05:25;11.60;99.90
11505;DHT22;5809;53.262;10.408;2023-05-10T03:07:52;11.60;99.90
11505;DHT22;5809;53.262;10.408;2023-05-10T03:10:22;11.60;99.90
11505;DHT22;5809;53.262;10.408;2023-05-10T03:13:06;11.60;99.90
11505;DHT22;5809;53.262;10.408;2023-05-10T03:15:42;11.60;99.90
11505;DHT22;5809;53.262;10.408;2023-05-10T03:18:17;11.50;99.90
11505;DHT22;5809;53.262;10.408;2023-05-10T03:20:47;11.50;99.90
11505;DHT22;5809;53.262;10.408;2023-05-10T03:23:21;11.50;99.90
11505;DHT22;5809;53.262;10.408;2023-05-10T03:25:50;11.50;99.90
11505;DHT22;5809;53.262;10.408;2023-05-10T03:28:18;11.80;99.90
11505;DHT22;5809;53.262;10.408;2023-05-10T03:30:47;11.50;99.90
11505;DHT22;5809;53.262;10.408;2023-05-10T03:33:14;11.50;99.90
11505;DHT22;5809;53.262;10.408;2023-05-10T03:35:41;11.50;99.90
11505;DHT22;5809;53.262;10.408;2023-05-10T03:38:09;11.50;99.90
11505;DHT22;5809;53.262;10.408;2023-05-10T03:40:36;11.40;99.90
11505;DHT22;5809;53.262;10.408;2023-05-10T03:45:32;11.40;99.90
11505;DHT22;5809;53.262;10.408;2023-05-10T03:47:59;11.40;99.90
11505;DHT22;5809;53.262;10.408;2023-05-10T03:50:26;11.40;99.90
11505;DHT22;5809;53.262;10.408;2023-05-10T03:52:52;11.40;99.90
11505;DHT22;5809;53.262;10.408;2023-05-10T03:55:19;11.40;99.90
11505;DHT22;5809;53.262;10.408;2023-05-10T03:57:47;11.40;99.90
11505;DHT22;5809;53.262;10.408;2023-05-10T04:00:15;11.40;99.90
11505;DHT22;5809;53.262;10.408;2023-05-10T04:02:44;11.40;99.90
11505;DHT22;5809;53.262;10.408;2023-05-10T04:05:11;11.40;99.90
11505;DHT22;5809;53.262;10.408;2023-05-10T04:07:38;11.40;99.90
11505;DHT22;5809;53.262;10.408;2023-05-10T04:10:05;11.40;99.90
11505;DHT22;5809;53.262;10.408;2023-05-10T04:14:59;11.40;99.90
11505;DHT22;5809;53.262;10.408;2023-05-10T04:17:26;11.40;99.90
11505;DHT22;5809;53.262;10.408;2023-05-10T04:19:56;11.40;99.90
11505;DHT22;5809;53.262;10.408;2023-05-10T04:22:22;11.40;99.90
11505;DHT22;5809;53.262;10.408;2023-05-10T04:24:49;11.40;99.90
11505;DHT22;5809;53.262;10.408;2023-05-10T04:29:43;11.40;99.90
11505;DHT22;5809;53.262;10.408;2023-05-10T04:32:10;11.40;99.90
11505;DHT22;5809;53.262;10.408;2023-05-10T04:37:06;11.40;99.90
11505;DHT22;5809;53.262;10.408;2023-05-10T04:39:33;11.40;99.90
11505;DHT22;5809;53.262;10.408;2023-05-10T04:42:00;11.50;99.90
11505;DHT22;5809;53.262;10.408;2023-05-10T04:44:28;11.40;99.90
11505;DHT22;5809;53.262;10.408;2023-05-10T04:46:55;11.50;99.90
11505;DHT22;5809;53.262;10.408;2023-05-10T04:49:22;11.50;99.90
11505;DHT22;5809;53.262;10.408;2023-05-10T04:51:49;11.60;99.90
11505;DHT22;5809;53.262;10.408;2023-05-10T04:54:17;11.60;99.90
11505;DHT22;5809;53.262;10.408;2023-05-10T04:56:44;11.70;99.90
11505;DHT22;5809;53.262;10.408;2023-05-10T04:59:11;11.70;99.90
11505;DHT22;5809;53.262;10.408;2023-05-10T05:04:05;11.90;99.90
11505;DHT22;5809;53.262;10.408;2023-05-10T05:06:32;11.90;99.90
11505;DHT22;5809;53.262;10.408;2023-05-10T05:08:59;11.90;99.90
11505;DHT22;5809;53.262;10.408;2023-05-10T05:11:27;12.00;99.90
11505;DHT22;5809;53.262;10.408;2023-05-10T05:13:54;12.20;99.90
11505;DHT22;5809;53.262;10.408;2023-05-10T05:16:21;12.20;99.90
11505;DHT22;5809;53.262;10.408;2023-05-10T05:18:48;12.40;99.90
11505;DHT22;5809;53.262;10.408;2023-05-10T05:21:15;12.50;99.90
11505;DHT22;5809;53.262;10.408;2023-05-10T05:23:42;12.50;99.90
11505;DHT22;5809;53.262;10.408;2023-05-10T05:26:09;12.50;99.90
11505;DHT22;5809;53.262;10.408;2023-05-10T05:28:38;12.50;99.90
11505;DHT22;5809;53.262;10.408;2023-05-10T05:31:05;12.60;99.90
11505;DHT22;5809;53.262;10.408;2023-05-10T05:33:33;12.80;99.90
11505;DHT22;5809;53.262;10.408;2023-05-10T05:36:01;12.70;99.90
11505;DHT22;5809;53.262;10.408;2023-05-10T05:38:28;12.70;99.90
11505;DHT22;5809;53.262;10.408;2023-05-10T05:40:55;12.70;99.90
11505;DHT22;5809;53.262;10.408;2023-05-10T05:43:21;12.70;99.90
11505;DHT22;5809;53.262;10.408;2023-05-10T05:45:51;12.90;99.90
11505;DHT22;5809;53.262;10.408;2023-05-10T05:48:18;13.00;99.90
11505;DHT22;5809;53.262;10.408;2023-05-10T05:50:46;13.20;99.90
11505;DHT22;5809;53.262;10.408;2023-05-10T05:53:13;13.20;99.90
11505;DHT22;5809;53.262;10.408;2023-05-10T05:55:40;13.60;99.90
11505;DHT22;5809;53.262;10.408;2023-05-10T05:58:07;13.60;99.90
11505;DHT22;5809;53.262;10.408;2023-05-10T06:00:34;13.40;99.90
11505;DHT22;5809;53.262;10.408;2023-05-10T06:03:02;13.30;99.90
11505;DHT22;5809;53.262;10.408;2023-05-10T06:05:29;13.40;99.90
11505;DHT22;5809;53.262;10.408;2023-05-10T06:07:56;13.40;99.90
11505;DHT22;5809;53.262;10.408;2023-05-10T06:10:26;13.40;99.90
11505;DHT22;5809;53.262;10.408;2023-05-10T06:12:52;13.50;99.90
11505;DHT22;5809;53.262;10.408;2023-05-10T06:17:46;13.40;99.90
11505;DHT22;5809;53.262;10.408;2023-05-10T06:20:16;13.60;99.90
11505;DHT22;5809;53.262;10.408;2023-05-10T06:22:43;13.80;99.90
11505;DHT22;5809;53.262;10.408;2023-05-10T06:25:10;13.80;99.90
11505;DHT22;5809;53.262;10.408;2023-05-10T06:27:37;14.10;99.90
11505;DHT22;5809;53.262;10.408;2023-05-10T06:30:06;14.10;99.90
11505;DHT22;5809;53.262;10.408;2023-05-10T06:32:33;14.50;99.90
11505;DHT22;5809;53.262;10.408;2023-05-10T06:35:00;14.50;99.90
11505;DHT22;5809;53.262;10.408;2023-05-10T06:37:29;14.50;99.90
11505;DHT22;5809;53.262;10.408;2023-05-10T06:39:55;13.90;99.90
11505;DHT22;5809;53.262;10.408;2023-05-10T06:42:22;13.90;99.90
11505;DHT22;5809;53.262;10.408;2023-05-10T06:44:50;13.90;99.90
11505;DHT22;5809;53.262;10.408;2023-05-10T06:47:17;14.10;99.90
11505;DHT22;5809;53.262;10.408;2023-05-10T06:49:44;13.90;99.90
11505;DHT22;5809;53.262;10.408;2023-05-10T06:52:11;14.00;99.90
11505;DHT22;5809;53.262;10.408;2023-05-10T06:54:39;14.10;99.90
11505;DHT22;5809;53.262;10.408;2023-05-10T06:57:06;14.20;99.90
11505;DHT22;5809;53.262;10.408;2023-05-10T06:59:33;14.20;99.90
11505;DHT22;5809;53.262;10.408;2023-05-10T07:02:00;14.40;99.90
11505;DHT22;5809;53.262;10.408;2023-05-10T07:04:27;14.20;99.90
11505;DHT22;5809;53.262;10.408;2023-05-10T07:06:54;14.30;99.90
11505;DHT22;5809;53.262;10.408;2023-05-10T07:09:20;14.40;99.90
11505;DHT22;5809;53.262;10.408;2023-05-10T07:11:49;14.70;99.90
11505;DHT22;5809;53.262;10.408;2023-05-10T07:14:15;14.60;99.90
11505;DHT22;5809;53.262;10.408;2023-05-10T07:16:42;14.80;99.90
11505;DHT22;5809;53.262;10.408;2023-05-10T07:19:09;15.00;99.90
11505;DHT22;5809;53.262;10.408;2023-05-10T07:21:36;15.00;99.90
11505;DHT22;5809;53.262;10.408;2023-05-10T07:24:05;15.20;99.90
11505;DHT22;5809;53.262;10.408;2023-05-10T07:26:32;15.00;99.90
11505;DHT22;5809;53.262;10.408;2023-05-10T07:29:01;15.10;99.90
11505;DHT22;5809;53.262;10.408;2023-05-10T07:31:27;15.10;99.90
11505;DHT22;5809;53.262;10.408;2023-05-10T07:33:54;15.30;99.90
11505;DHT22;5809;53.262;10.408;2023-05-10T07:36:21;15.40;99.90
11505;DHT22;5809;53.262;10.408;2023-05-10T07:38:48;15.50;99.90
11505;DHT22;5809;53.262;10.408;2023-05-10T07:41:16;15.60;99.90
11505;DHT22;5809;53.262;10.408;2023-05-10T07:43:42;15.20;99.90
11505;DHT22;5809;53.262;10.408;2023-05-10T07:46:11;15.50;99.90
11505;DHT22;5809;53.262;10.408;2023-05-10T07:48:38;15.40;99.90
11505;DHT22;5809;53.262;10.408;2023-05-10T07:51:05;15.30;99.90
11505;DHT22;5809;53.262;10.408;2023-05-10T07:53:34;15.40;99.90
11505;DHT22;5809;53.262;10.408;2023-05-10T07:56:21;15.50;99.90
11505;DHT22;5809;53.262;10.408;2023-05-10T07:58:48;15.80;99.90
11505;DHT22;5809;53.262;10.408;2023-05-10T08:01:16;16.00;99.90
11505;DHT22;5809;53.262;10.408;2023-05-10T08:03:43;16.10;99.90
11505;DHT22;5809;53.262;10.408;2023-05-10T08:06:10;16.00;99.90
11505;DHT22;5809;53.262;10.408;2023-05-10T08:08:37;16.00;99.90
11505;DHT22;5809;53.262;10.408;2023-05-10T08:11:04;15.90;99.90
11505;DHT22;5809;53.262;10.408;2023-05-10T08:13:31;16.10;99.90
11505;DHT22;5809;53.262;10.408;2023-05-10T08:15:58;16.10;99.90
11505;DHT22;5809;53.262;10.408;2023-05-10T08:18:26;16.00;99.90
11505;DHT22;5809;53.262;10.408;2023-05-10T08:20:53;16.20;99.90
11505;DHT22;5809;53.262;10.408;2023-05-10T08:23:20;15.90;99.90
11505;DHT22;5809;53.262;10.408;2023-05-10T08:25:47;16.20;99.90
11505;DHT22;5809;53.262;10.408;2023-05-10T08:28:14;16.50;99.90
11505;DHT22;5809;53.262;10.408;2023-05-10T08:30:41;16.50;99.90
11505;DHT22;5809;53.262;10.408;2023-05-10T08:33:08;16.30;99.90
11505;DHT22;5809;53.262;10.408;2023-05-10T08:35:36;16.20;99.90
11505;DHT22;5809;53.262;10.408;2023-05-10T08:38:03;15.70;99.90
11505;DHT22;5809;53.262;10.408;2023-05-10T08:40:30;15.40;99.90
11505;DHT22;5809;53.262;10.408;2023-05-10T08:43:01;15.40;99.90
11505;DHT22;5809;53.262;10.408;2023-05-10T08:45:32;15.40;99.90
11505;DHT22;5809;53.262;10.408;2023-05-10T08:48:01;15.50;99.90
11505;DHT22;5809;53.262;10.408;2023-05-10T08:50:29;15.60;99.90
11505;DHT22;5809;53.262;10.408;2023-05-10T08:53:00;15.60;99.90
11505;DHT22;5809;53.262;10.408;2023-05-10T08:55:30;15.60;99.90
11505;DHT22;5809;53.262;10.408;2023-05-10T08:57:59;13.90;99.90
11505;DHT22;5809;53.262;10.408;2023-05-10T09:00:26;15.80;99.90
11505;DHT22;5809;53.262;10.408;2023-05-10T09:02:53;15.80;99.90
11505;DHT22;5809;53.262;10.408;2023-05-10T09:05:20;15.70;99.90
11505;DHT22;5809;53.262;10.408;2023-05-10T09:07:47;15.60;99.90
11505;DHT22;5809;53.262;10.408;2023-05-10T09:10:16;15.60;99.90
11505;DHT22;5809;53.262;10.408;2023-05-10T09:12:44;15.80;99.90
11505;DHT22;5809;53.262;10.408;2023-05-10T09:15:12;15.40;99.90
11505;DHT22;5809;53.262;10.408;2023-05-10T09:17:42;15.30;99.90
11505;DHT22;5809;53.262;10.408;2023-05-10T09:20:10;15.40;99.90
11505;DHT22;5809;53.262;10.408;2023-05-10T09:22:37;15.50;99.90
11505;DHT22;5809;53.262;10.408;2023-05-10T09:25:06;15.50;99.90
11505;DHT22;5809;53.262;10.408;2023-05-10T09:27:35;15.70;99.90
11505;DHT22;5809;53.262;10.408;2023-05-10T09:30:02;15.70;99.90
11505;DHT22;5809;53.262;10.408;2023-05-10T09:32:39;15.50;99.90
11505;DHT22;5809;53.262;10.408;2023-05-10T09:35:08;14.60;99.90
11505;DHT22;5809;53.262;10.408;2023-05-10T09:37:35;15.70;99.90
11505;DHT22;5809;53.262;10.408;2023-05-10T09:40:05;15.90;99.90
11505;DHT22;5809;53.262;10.408;2023-05-10T09:42:34;15.90;99.90
11505;DHT22;5809;53.262;10.408;2023-05-10T09:45:05;15.90;99.90
11505;DHT22;5809;53.262;10.408;2023-05-10T09:47:32;15.80;99.90
11505;DHT22;5809;53.262;10.408;2023-05-10T09:50:00;15.80;99.90
11505;DHT22;5809;53.262;10.408;2023-05-10T09:52:30;15.60;99.90
11505;DHT22;5809;53.262;10.408;2023-05-10T09:54:57;15.40;99.90
11505;DHT22;5809;53.262;10.408;2023-05-10T09:57:24;15.30;99.90
11505;DHT22;5809;53.262;10.408;2023-05-10T09:59:53;15.10;99.90
11505;DHT22;5809;53.262;10.408;2023-05-10T10:02:21;15.00;99.90
11505;DHT22;5809;53.262;10.408;2023-05-10T10:04:49;15.10;99.90
11505;DHT22;5809;53.262;10.408;2023-05-10T10:07:22;15.20;99.90
11505;DHT22;5809;53.262;10.408;2023-05-10T10:09:51;15.30;99.90
11505;DHT22;5809;53.262;10.408;2023-05-10T10:12:18;15.30;99.90
11505;DHT22;5809;53.262;10.408;2023-05-10T10:14:46;15.20;99.90
11505;DHT22;5809;53.262;10.408;2023-05-10T10:19:43;14.90;99.90
11505;DHT22;5809;53.262;10.408;2023-05-10T10:22:11;14.80;99.90
11505;DHT22;5809;53.262;10.408;2023-05-10T10:24:38;14.50;99.90
11505;DHT22;5809;53.262;10.408;2023-05-10T10:27:16;14.20;99.90
11505;DHT22;5809;53.262;10.408;2023-05-10T10:29:52;14.00;99.90
11505;DHT22;5809;53.262;10.408;2023-05-10T10:32:30;13.70;99.90
11505;DHT22;5809;53.262;10.408;2023-05-10T10:37:42;13.00;99.90
11505;DHT22;5809;53.262;10.408;2023-05-10T10:40:26;12.90;99.90
11505;DHT22;5809;53.262;10.408;2023-05-10T10:42:53;12.90;99.90
11505;DHT22;5809;53.262;10.408;2023-05-10T10:45:21;12.70;99.90
11505;DHT22;5809;53.262;10.408;2023-05-10T10:50:43;12.60;99.90
11505;DHT22;5809;53.262;10.408;2023-05-10T10:53:11;12.50;99.90
11505;DHT22;5809;53.262;10.408;2023-05-10T10:55:46;12.50;99.90
11505;DHT22;5809;53.262;10.408;2023-05-10T10:58:28;12.60;99.90
11505;DHT22;5809;53.262;10.408;2023-05-10T11:01:10;12.60;99.90
11505;DHT22;5809;53.262;10.408;2023-05-10T11:03:38;12.60;99.90
11505;DHT22;5809;53.262;10.408;2023-05-10T11:06:05;12.50;99.90
11505;DHT22;5809;53.262;10.408;2023-05-10T11:08:34;12.50;99.90
11505;DHT22;5809;53.262;10.408;2023-05-10T11:11:07;12.60;99.90
11505;DHT22;5809;53.262;10.408;2023-05-10T11:13:38;12.60;99.90
11505;DHT22;5809;53.262;10.408;2023-05-10T11:16:13;12.60;99.90
11505;DHT22;5809;53.262;10.408;2023-05-10T11:18:57;12.90;99.90
11505;DHT22;5809;53.262;10.408;2023-05-10T11:21:24;13.00;99.90
11505;DHT22;5809;53.262;10.408;2023-05-10T11:23:52;13.00;99.90
11505;DHT22;5809;53.262;10.408;2023-05-10T11:26:22;12.90;99.90
11505;DHT22;5809;53.262;10.408;2023-05-10T11:28:52;13.10;99.90
11505;DHT22;5809;53.262;10.408;2023-05-10T11:31:20;13.20;99.90
11505;DHT22;5809;53.262;10.408;2023-05-10T11:33:49;13.20;99.90
11505;DHT22;5809;53.262;10.408;2023-05-10T11:36:17;13.10;99.90
11505;DHT22;5809;53.262;10.408;2023-05-10T11:38:45;13.20;99.90
11505;DHT22;5809;53.262;10.408;2023-05-10T11:41:13;13.20;99.90
11505;DHT22;5809;53.262;10.408;2023-05-10T11:43:40;13.30;99.90
11505;DHT22;5809;53.262;10.408;2023-05-10T11:46:09;13.30;99.90
11505;DHT22;5809;53.262;10.408;2023-05-10T11:48:37;13.40;99.90
11505;DHT22;5809;53.262;10.408;2023-05-10T11:51:06;13.40;99.90
11505;DHT22;5809;53.262;10.408;2023-05-10T11:53:34;13.70;99.90
11505;DHT22;5809;53.262;10.408;2023-05-10T11:56:05;13.70;99.90
11505;DHT22;5809;53.262;10.408;2023-05-10T11:58:32;13.60;99.90
11505;DHT22;5809;53.262;10.408;2023-05-10T12:00:59;13.70;99.90
11505;DHT22;5809;53.262;10.408;2023-05-10T12:03:27;13.50;99.90
11505;DHT22;5809;53.262;10.408;2023-05-10T12:05:55;13.50;99.90
11505;DHT22;5809;53.262;10.408;2023-05-10T12:08:25;13.60;99.90
11505;DHT22;5809;53.262;10.408;2023-05-10T12:10:52;13.60;99.90
11505;DHT22;5809;53.262;10.408;2023-05-10T12:13:20;13.70;99.90
11505;DHT22;5809;53.262;10.408;2023-05-10T12:15:47;13.70;99.90
11505;DHT22;5809;53.262;10.408;2023-05-10T12:18:14;13.70;99.90
11505;DHT22;5809;53.262;10.408;2023-05-10T12:20:41;13.70;99.90
11505;DHT22;5809;53.262;10.408;2023-05-10T12:23:09;13.70;99.90
11505;DHT22;5809;53.262;10.408;2023-05-10T12:25:38;13.80;99.90
11505;DHT22;5809;53.262;10.408;2023-05-10T12:28:07;13.90;99.90
11505;DHT22;5809;53.262;10.408;2023-05-10T12:30:35;13.80;99.90
11505;DHT22;5809;53.262;10.408;2023-05-10T12:33:07;13.90;99.90
11505;DHT22;5809;53.262;10.408;2023-05-10T12:35:44;13.80;99.90
11505;DHT22;5809;53.262;10.408;2023-05-10T12:38:27;13.70;99.90
11505;DHT22;5809;53.262;10.408;2023-05-10T12:40:58;13.70;99.90
11505;DHT22;5809;53.262;10.408;2023-05-10T12:43:25;13.80;99.90
11505;DHT22;5809;53.262;10.408;2023-05-10T12:45:52;13.90;99.90
11505;DHT22;5809;53.262;10.408;2023-05-10T12:48:19;14.00;99.90
11505;DHT22;5809;53.262;10.408;2023-05-10T12:50:46;14.00;99.90
11505;DHT22;5809;53.262;10.408;2023-05-10T12:53:14;14.10;99.90
11505;DHT22;5809;53.262;10.408;2023-05-10T12:55:41;14.20;99.90
11505;DHT22;5809;53.262;10.408;2023-05-10T12:58:09;14.20;99.90
11505;DHT22;5809;53.262;10.408;2023-05-10T13:00:36;14.20;99.90
11505;DHT22;5809;53.262;10.408;2023-05-10T13:03:03;14.20;99.90
11505;DHT22;5809;53.262;10.408;2023-05-10T13:05:31;14.40;99.90
11505;DHT22;5809;53.262;10.408;2023-05-10T13:07:58;14.50;99.90
11505;DHT22;5809;53.262;10.408;2023-05-10T13:10:24;14.70;99.90
11505;DHT22;5809;53.262;10.408;2023-05-10T13:12:51;14.90;99.90
11505;DHT22;5809;53.262;10.408;2023-05-10T13:15:20;15.00;99.90
11505;DHT22;5809;53.262;10.408;2023-05-10T13:17:47;15.00;99.90
11505;DHT22;5809;53.262;10.408;2023-05-10T13:20:14;14.70;99.90
11505;DHT22;5809;53.262;10.408;2023-05-10T13:22:41;14.50;99.90
11505;DHT22;5809;53.262;10.408;2023-05-10T13:25:09;14.40;99.90
11505;DHT22;5809;53.262;10.408;2023-05-10T13:27:36;14.50;99.90
11505;DHT22;5809;53.262;10.408;2023-05-10T13:30:04;18.50;99.90
11505;DHT22;5809;53.262;10.408;2023-05-10T13:32:32;15.00;99.90
11505;DHT22;5809;53.262;10.408;2023-05-10T13:35:00;15.00;99.90
11505;DHT22;5809;53.262;10.408;2023-05-10T13:37:28;14.90;99.90
11505;DHT22;5809;53.262;10.408;2023-05-10T13:39:56;14.90;99.90
11505;DHT22;5809;53.262;10.408;2023-05-10T13:42:23;14.90;99.90
11505;DHT22;5809;53.262;10.408;2023-05-10T13:44:50;14.90;99.90
11505;DHT22;5809;53.262;10.408;2023-05-10T13:47:17;15.00;99.90
11505;DHT22;5809;53.262;10.408;2023-05-10T13:49:45;15.20;99.90
11505;DHT22;5809;53.262;10.408;2023-05-10T13:52:12;15.20;99.90
11505;DHT22;5809;53.262;10.408;2023-05-10T13:54:39;15.40;99.90
11505;DHT22;5809;53.262;10.408;2023-05-10T13:57:06;15.40;99.90
11505;DHT22;5809;53.262;10.408;2023-05-10T13:59:33;15.50;99.90
11505;DHT22;5809;53.262;10.408;2023-05-10T14:02:00;15.60;99.90
11505;DHT22;5809;53.262;10.408;2023-05-10T14:04:28;15.80;99.90
11505;DHT22;5809;53.262;10.408;2023-05-10T14:06:56;15.90;99.90
11505;DHT22;5809;53.262;10.408;2023-05-10T14:09:23;16.50;99.90
11505;DHT22;5809;53.262;10.408;2023-05-10T14:11:50;17.30;99.90
11505;DHT22;5809;53.262;10.408;2023-05-10T14:14:17;17.90;99.90
11505;DHT22;5809;53.262;10.408;2023-05-10T14:16:44;18.30;99.90
11505;DHT22;5809;53.262;10.408;2023-05-10T14:19:11;18.40;99.90
11505;DHT22;5809;53.262;10.408;2023-05-10T14:21:38;18.00;99.90
11505;DHT22;5809;53.262;10.408;2023-05-10T14:24:07;17.70;99.90
11505;DHT22;5809;53.262;10.408;2023-05-10T14:26:34;18.10;99.90
11505;DHT22;5809;53.262;10.408;2023-05-10T14:29:01;17.90;99.90
11505;DHT22;5809;53.262;10.408;2023-05-10T14:31:28;17.80;99.90
11505;DHT22;5809;53.262;10.408;2023-05-10T14:33:55;17.80;99.90
11505;DHT22;5809;53.262;10.408;2023-05-10T14:36:23;17.80;99.90
11505;DHT22;5809;53.262;10.408;2023-05-10T14:38:49;19.80;99.90
11505;DHT22;5809;53.262;10.408;2023-05-10T14:41:18;18.10;99.90
11505;DHT22;5809;53.262;10.408;2023-05-10T14:43:45;18.20;99.90
11505;DHT22;5809;53.262;10.408;2023-05-10T14:46:12;18.90;99.90
11505;DHT22;5809;53.262;10.408;2023-05-10T14:48:39;19.10;99.90
11505;DHT22;5809;53.262;10.408;2023-05-10T14:51:06;18.60;99.90
11505;DHT22;5809;53.262;10.408;2023-05-10T14:53:33;18.10;99.90
11505;DHT22;5809;53.262;10.408;2023-05-10T14:56:00;17.70;99.90
11505;DHT22;5809;53.262;10.408;2023-05-10T14:58:29;17.60;99.90
11505;DHT22;5809;53.262;10.408;2023-05-10T15:00:56;17.40;99.90
11505;DHT22;5809;53.262;10.408;2023-05-10T15:03:23;17.50;99.90
11505;DHT22;5809;53.262;10.408;2023-05-10T15:05:50;17.50;99.90
11505;DHT22;5809;53.262;10.408;2023-05-10T15:08:18;17.40;99.90
11505;DHT22;5809;53.262;10.408;2023-05-10T15:10:45;17.20;99.90
11505;DHT22;5809;53.262;10.408;2023-05-10T15:13:13;16.80;99.90
11505;DHT22;5809;53.262;10.408;2023-05-10T15:15:41;17.10;99.90
11505;DHT22;5809;53.262;10.408;2023-05-10T15:18:08;17.20;99.90
11505;DHT22;5809;53.262;10.408;2023-05-10T15:20:35;17.40;99.90
11505;DHT22;5809;53.262;10.408;2023-05-10T15:23:02;17.40;99.90
11505;DHT22;5809;53.262;10.408;2023-05-10T15:25:29;17.50;99.90
11505;DHT22;5809;53.262;10.408;2023-05-10T15:27:56;17.50;99.90
11505;DHT22;5809;53.262;10.408;2023-05-10T15:30:23;17.40;99.90
11505;DHT22;5809;53.262;10.408;2023-05-10T15:32:51;17.40;99.90
11505;DHT22;5809;53.262;10.408;2023-05-10T15:35:18;17.50;99.90
11505;DHT22;5809;53.262;10.408;2023-05-10T15:37:47;17.30;99.90
11505;DHT22;5809;53.262;10.408;2023-05-10T15:40:14;17.30;99.90
11505;DHT22;5809;53.262;10.408;2023-05-10T15:42:41;17.30;99.90
11505;DHT22;5809;53.262;10.408;2023-05-10T15:45:10;17.20;99.90
11505;DHT22;5809;53.262;10.408;2023-05-10T15:47:37;16.70;99.90
11505;DHT22;5809;53.262;10.408;2023-05-10T15:50:07;16.90;99.90
11505;DHT22;5809;53.262;10.408;2023-05-10T15:52:34;17.00;99.90
11505;DHT22;5809;53.262;10.408;2023-05-10T15:55:01;17.10;99.90
11505;DHT22;5809;53.262;10.408;2023-05-10T15:57:29;17.20;99.90
11505;DHT22;5809;53.262;10.408;2023-05-10T15:59:56;17.20;99.90
11505;DHT22;5809;53.262;10.408;2023-05-10T16:02:23;17.10;99.90
11505;DHT22;5809;53.262;10.408;2023-05-10T16:04:49;17.10;99.90
11505;DHT22;5809;53.262;10.408;2023-05-10T16:07:18;17.00;99.90